Time;durP1;ratioP1;P1;durP2;ratioP2;P2;SDS_P1;SDS_P2;PMS_P1;PMS_P2;Temp;Humidity;BMP_temperature;BMP_pressure;BME280_temperature;BME280_humidity;BME280_pressure;Samples;Min_cycle;Max_cycle;Signal;HPM_P1;HPM_P2
2023/02/08 00:00:47;;;;;;;35.63;17.48;;;;;;;-3.70;63.70;101246.63;5093723;28;20088;-70
2023/02/08 00:03:13;;;;;;;39.15;18.35;;;;;;;-3.67;63.98;101242.66;5094376;28;20028;-71
2023/02/08 00:05:38;;;;;;;37.35;19.35;;;;;;;-3.75;63.87;101235.44;5094415;28;20028;-70
2023/02/08 00:08:04;;;;;;;39.20;18.92;;;;;;;-3.79;64.45;101238.75;5093055;28;20032;-70
2023/02/08 00:10:30;;;;;;;39.90;20.50;;;;;;;-3.83;64.41;101243.75;5093632;28;20031;-71
2023/02/08 00:12:56;;;;;;;39.58;19.77;;;;;;;-3.89;64.60;101253.59;5094514;28;20409;-70
2023/02/08 00:15:21;;;;;;;39.60;19.80;;;;;;;-3.85;64.13;101260.38;5092864;28;20467;-71
2023/02/08 00:17:47;;;;;;;41.83;20.52;;;;;;;-3.97;64.30;101257.31;5092771;28;20059;-70
2023/02/08 00:20:12;;;;;;;37.30;17.95;;;;;;;-3.90;63.89;101257.38;5092785;28;20036;-70
2023/02/08 00:22:38;;;;;;;38.90;18.90;;;;;;;-3.92;64.59;101256.72;5089390;28;20036;-72
2023/02/08 00:25:07;;;;;;;45.17;19.13;;;;;;;-3.92;64.55;101261.31;5087427;28;20466;-71
2023/02/08 00:27:33;;;;;;;44.67;19.75;;;;;;;-3.87;64.67;101259.69;5105033;28;20493;-71
2023/02/08 00:29:58;;;;;;;37.55;18.55;;;;;;;-3.87;64.64;101254.22;5093273;28;20060;-70
2023/02/08 00:32:24;;;;;;;37.83;20.02;;;;;;;-3.92;65.33;101255.84;5092144;28;20489;-70
2023/02/08 00:34:50;;;;;;;42.05;19.50;;;;;;;-3.95;65.24;101274.34;5102614;28;20034;-71
2023/02/08 00:37:15;;;;;;;35.70;18.38;;;;;;;-3.89;64.69;101272.72;5108832;28;20125;-70
2023/02/08 00:39:42;;;;;;;37.97;18.77;;;;;;;-3.83;65.08;101276.56;5092859;28;20095;-70
2023/02/08 00:42:07;;;;;;;40.08;19.70;;;;;;;-3.82;64.78;101279.13;5093073;28;20035;-70
2023/02/08 00:44:33;;;;;;;41.97;19.88;;;;;;;-3.84;64.84;101278.47;5093848;28;20104;-70
2023/02/08 00:46:58;;;;;;;41.85;20.02;;;;;;;-3.89;64.73;101277.38;5091950;28;20460;-71
2023/02/08 00:49:24;;;;;;;44.92;20.80;;;;;;;-3.92;65.08;101281.31;5093317;28;20472;-70
2023/02/08 00:51:49;;;;;;;42.80;21.48;;;;;;;-3.92;64.94;101283.19;5093908;28;20024;-70
2023/02/08 00:54:19;;;;;;;50.15;21.85;;;;;;;-3.91;65.00;101284.94;5093639;28;20020;-70
2023/02/08 00:56:45;;;;;;;45.05;20.98;;;;;;;-3.87;65.00;101286.22;5092936;28;20378;-70
2023/02/08 00:59:11;;;;;;;45.95;21.02;;;;;;;-3.88;64.49;101287.25;5093966;28;20102;-70
2023/02/08 01:01:37;;;;;;;39.35;19.70;;;;;;;-3.84;64.42;101283.94;5075374;28;20647;-70
2023/02/08 01:04:04;;;;;;;47.33;20.40;;;;;;;-3.91;64.45;101263.88;5092277;28;20104;-70
2023/02/08 01:06:30;;;;;;;39.95;19.13;;;;;;;-3.89;64.78;101272.72;5093400;28;20448;-71
2023/02/08 01:08:55;;;;;;;37.25;20.35;;;;;;;-3.88;64.53;101279.88;5091439;28;20020;-70
2023/02/08 01:11:24;;;;;;;38.42;21.13;;;;;;;-3.89;65.14;101277.38;5092249;28;20504;-70
2023/02/08 01:13:53;;;;;;;46.28;20.17;;;;;;;-3.85;65.09;101282.25;5093087;28;20093;-70
2023/02/08 01:16:22;;;;;;;41.10;20.02;;;;;;;-3.84;64.82;101281.22;5092804;28;20064;-70
2023/02/08 01:18:50;;;;;;;45.28;20.80;;;;;;;-3.87;65.03;101267.06;5090819;28;20031;-71
2023/02/08 01:21:19;;;;;;;49.70;22.13;;;;;;;-3.85;65.26;101273.19;5091143;28;20024;-70
2023/02/08 01:23:45;;;;;;;48.05;21.13;;;;;;;-3.88;64.90;101279.88;5092127;28;20022;-70
2023/02/08 01:26:12;;;;;;;47.30;21.58;;;;;;;-3.86;65.23;101283.31;5093023;28;20023;-70
2023/02/08 01:28:38;;;;;;;42.88;20.98;;;;;;;-3.93;64.63;101271.44;5092736;28;20042;-70
2023/02/08 01:31:10;;;;;;;45.83;21.27;;;;;;;-3.92;64.82;101275.00;5091776;28;20031;-70
2023/02/08 01:33:35;;;;;;;41.92;19.45;;;;;;;-3.90;64.95;101275.69;5090929;28;20024;-71
2023/02/08 01:36:01;;;;;;;38.92;17.92;;;;;;;-3.92;64.66;101278.59;5091202;28;20410;-70
2023/02/08 01:38:27;;;;;;;42.25;19.77;;;;;;;-3.93;64.97;101276.03;5092721;28;20031;-70
2023/02/08 01:40:52;;;;;;;42.45;18.83;;;;;;;-3.94;65.17;101269.75;5091794;28;20028;-70
2023/02/08 01:43:25;;;;;;;46.38;22.08;;;;;;;-3.94;65.20;101272.47;5091217;28;20467;-70
2023/02/08 01:45:51;;;;;;;38.15;19.52;;;;;;;-4.03;65.38;101271.75;5090541;28;20054;-70
2023/02/08 01:48:25;;;;;;;44.40;20.60;;;;;;;-4.06;65.95;101276.75;5092123;28;20056;-70
2023/02/08 01:50:58;;;;;;;34.67;17.40;;;;;;;-4.14;65.96;101275.84;5092674;28;20481;-71
2023/02/08 01:53:27;;;;;;;45.45;19.92;;;;;;;-4.04;65.94;101285.63;5091006;28;20530;-70
2023/02/08 01:55:56;;;;;;;44.20;19.35;;;;;;;-4.06;65.81;101288.53;5091705;28;20500;-70
2023/02/08 01:58:25;;;;;;;46.90;20.30;;;;;;;-4.02;65.52;101283.53;5090917;28;20038;-70
2023/02/08 02:00:50;;;;;;;38.45;19.40;;;;;;;-4.09;65.76;101287.06;5092519;28;20043;-70
2023/02/08 02:03:18;;;;;;;43.33;22.10;;;;;;;-4.02;65.30;101291.72;5092113;28;20490;-70
2023/02/08 02:05:48;;;;;;;37.75;18.58;;;;;;;-4.11;65.90;101296.47;5106147;28;20040;-70
2023/02/08 02:08:14;;;;;;;40.58;18.67;;;;;;;-4.14;65.55;101292.22;5095901;28;20394;-70
2023/02/08 02:10:41;;;;;;;37.72;18.35;;;;;;;-4.09;65.50;101295.25;5092230;28;20028;-70
2023/02/08 02:13:13;;;;;;;42.47;19.02;;;;;;;-4.13;65.73;101301.28;5091915;28;20185;-71
2023/02/08 02:15:39;;;;;;;42.28;19.48;;;;;;;-4.05;64.96;101305.78;5091469;28;20488;-70
2023/02/08 02:18:06;;;;;;;43.58;19.40;;;;;;;-4.11;64.96;101297.31;5091708;28;20114;-70
2023/02/08 02:21:27;;;;;;;37.10;19.48;;;;;;;-4.07;64.46;101308.72;5092048;28;20093;-70
2023/02/08 02:24:21;;;;;;;48.10;20.45;;;;;;;-4.09;64.72;101311.66;5066288;28;20063;-70
2023/02/08 02:27:13;;;;;;;41.35;18.88;;;;;;;-4.10;64.46;101309.97;5091576;28;20031;-70
2023/02/08 02:30:15;;;;;;;38.50;18.33;;;;;;;-4.18;64.62;101311.94;5103156;28;20024;-71
2023/02/08 02:32:58;;;;;;;45.88;19.85;;;;;;;-4.13;64.70;101315.78;5091188;28;20072;-70
2023/02/08 02:35:31;;;;;;;43.55;19.63;;;;;;;-4.12;64.29;101312.00;5091474;28;20024;-70
2023/02/08 02:38:09;;;;;;;40.22;19.40;;;;;;;-4.03;63.78;101318.25;5091459;28;20032;-70
2023/02/08 02:40:59;;;;;;;40.78;17.63;;;;;;;-4.04;64.43;101312.94;5091769;28;20032;-70
2023/02/08 02:43:44;;;;;;;;;;;;;;;-4.12;64.02;101312.00;5092172;28;20103;-70
2023/02/08 02:46:28;;;;;;;35.35;17.02;;;;;;;-4.10;64.49;101312.69;5098401;28;19916;-70
2023/02/08 02:49:00;;;;;;;33.05;15.80;;;;;;;-4.06;64.21;101307.66;5090971;28;20059;-70
2023/02/08 02:51:31;;;;;;;39.53;18.80;;;;;;;-3.93;63.95;101315.19;5090830;28;20074;-70
2023/02/08 02:54:07;;;;;;;37.60;17.40;;;;;;;-3.77;63.46;101310.50;5090626;28;20478;-70
2023/02/08 02:56:38;;;;;;;42.90;18.88;;;;;;;-3.69;63.03;101322.16;5091803;28;20028;-70
2023/02/08 02:59:09;;;;;;;32.63;16.15;;;;;;;-3.65;62.44;101316.31;5099190;28;20106;-70
2023/02/08 03:01:35;;;;;;;34.90;18.42;;;;;;;-3.69;62.38;101327.63;5112097;28;20024;-70
2023/02/08 03:04:31;;;;;;;34.42;17.27;;;;;;;-3.60;61.99;101331.09;5103601;28;20107;-70
2023/02/08 03:07:53;;;;;;;35.33;16.98;;;;;;;-3.40;61.55;101338.66;5077214;28;20525;-70
2023/02/08 03:10:40;;;;;;;36.60;17.70;;;;;;;-3.36;60.65;101353.66;5009474;28;20605;-70
2023/02/08 03:13:30;;;;;;;39.53;17.67;;;;;;;-3.37;60.89;101341.00;5009545;28;20112;-71
2023/02/08 03:16:14;;;;;;;35.95;16.92;;;;;;;-3.35;60.88;101344.41;5072117;28;20574;-71
2023/02/08 03:18:54;;;;;;;35.33;16.88;;;;;;;-3.28;60.34;101344.44;5092954;28;20031;-70
2023/02/08 03:21:29;;;;;;;38.58;17.50;;;;;;;-3.43;60.73;101352.72;5091431;28;20098;-70
2023/02/08 03:24:01;;;;;;;32.63;16.70;;;;;;;-3.59;61.12;101349.22;5088604;28;20036;-71
2023/02/08 03:27:00;;;;;;;36.92;17.55;;;;;;;-3.47;61.16;101351.44;5086762;28;20025;-70
2023/02/08 03:29:55;;;;;;;31.42;15.82;;;;;;;-3.43;60.40;101369.16;5075785;28;20031;-71
2023/02/08 03:32:23;;;;;;;39.83;17.98;;;;;;;-3.45;60.53;101361.13;5091323;28;20109;-70
2023/02/08 03:35:13;;;;;;;37.63;18.52;;;;;;;-3.31;59.66;101373.06;5090049;28;20032;-70
2023/02/08 03:37:45;;;;;;;36.15;16.85;;;;;;;-3.25;59.51;101377.75;5089979;28;20569;-70
2023/02/08 03:40:26;;;;;;;32.40;16.27;;;;;;;-3.35;59.92;101377.25;5091196;28;20028;-70
2023/02/08 03:42:55;;;;;;;34.65;16.40;;;;;;;-3.44;59.88;101373.78;5091253;28;20409;-70
2023/02/08 03:45:28;;;;;;;36.95;17.88;;;;;;;-3.53;60.16;101375.78;5090011;28;20024;-70
2023/02/08 03:47:58;;;;;;;32.03;16.52;;;;;;;-3.55;60.16;101377.03;5090864;28;20047;-70
2023/02/08 03:50:24;;;;;;;39.20;16.33;;;;;;;-3.52;59.98;101388.41;5090942;28;20052;-70
2023/02/08 03:52:51;;;;;;;37.88;16.88;;;;;;;-3.63;59.96;101382.63;5090154;28;20824;-70
2023/02/08 03:55:24;;;;;;;35.20;16.85;;;;;;;-3.64;60.40;101394.59;5100884;28;20031;-70
2023/02/08 03:58:10;;;;;;;36.40;16.75;;;;;;;-3.46;60.22;101385.97;5096525;28;20552;-70
2023/02/08 04:00:41;;;;;;;36.83;16.63;;;;;;;-3.62;60.69;101387.06;5090987;28;20024;-70
2023/02/08 04:03:19;;;;;;;41.65;18.15;;;;;;;-3.68;60.66;101386.78;5091123;28;20451;-70
2023/02/08 04:05:45;;;;;;;36.78;16.88;;;;;;;-3.62;60.89;101396.13;5096927;28;20098;-70
2023/02/08 04:08:11;;;;;;;41.65;19.85;;;;;;;-3.57;60.55;101393.63;5089620;28;20030;-70
2023/02/08 04:10:36;;;;;;;43.15;20.73;;;;;;;-3.40;61.14;101398.84;5089521;28;20020;-70
2023/02/08 04:13:04;;;;;;;40.00;20.30;;;;;;;-3.32;60.19;101403.34;5090978;28;20063;-70
2023/02/08 04:15:30;;;;;;;43.90;20.63;;;;;;;-3.39;59.77;101403.28;5089694;28;20032;-70
2023/02/08 04:17:56;;;;;;;35.97;18.50;;;;;;;-3.43;59.88;101399.25;5090845;28;20112;-70
2023/02/08 04:20:21;;;;;;;35.95;16.98;;;;;;;-3.43;60.23;101393.78;5089493;28;20024;-70
2023/02/08 04:22:47;;;;;;;41.45;19.60;;;;;;;-3.60;60.20;101404.97;5090789;28;20425;-70
2023/02/08 04:25:13;;;;;;;44.15;20.90;;;;;;;-3.75;61.03;101404.16;5089430;28;20500;-70
2023/02/08 04:27:38;;;;;;;39.25;19.13;;;;;;;-3.72;61.40;101412.00;5089569;28;20105;-70
2023/02/08 04:30:04;;;;;;;37.42;17.92;;;;;;;-3.53;60.49;101411.34;5089419;28;20028;-70
2023/02/08 04:32:30;;;;;;;41.53;18.90;;;;;;;-3.50;60.22;101412.00;5091128;28;20024;-70
2023/02/08 04:34:55;;;;;;;35.08;16.85;;;;;;;-3.48;60.24;101412.69;5087659;28;20050;-70
2023/02/08 04:37:21;;;;;;;39.45;17.85;;;;;;;-3.55;59.99;101410.69;5101656;28;20515;-70
2023/02/08 04:39:46;;;;;;;36.50;18.23;;;;;;;-3.67;60.33;101407.63;5114627;28;20031;-70
2023/02/08 04:42:12;;;;;;;33.05;16.90;;;;;;;-3.67;60.64;101415.84;5114642;28;20482;-70
2023/02/08 04:44:37;;;;;;;38.08;19.02;;;;;;;-3.57;60.61;101418.25;5104057;28;20031;-70
2023/02/08 04:47:03;;;;;;;43.28;21.08;;;;;;;-3.68;61.03;101416.88;5094280;28;20024;-69
2023/02/08 04:49:29;;;;;;;49.30;24.40;;;;;;;-3.82;60.79;101420.47;5093918;28;20537;-70
2023/02/08 04:51:54;;;;;;;46.15;21.88;;;;;;;-3.75;60.92;101428.75;5092759;28;20027;-70
2023/02/08 04:54:20;;;;;;;45.38;20.38;;;;;;;-3.70;60.95;101429.88;5092880;28;20100;-70
2023/02/08 04:56:45;;;;;;;43.80;20.83;;;;;;;-3.71;61.48;101436.41;5093811;28;20019;-70
2023/02/08 04:59:11;;;;;;;48.03;21.17;;;;;;;-3.71;60.84;101443.78;5092734;28;20024;-71
2023/02/08 05:01:36;;;;;;;40.85;19.90;;;;;;;-3.71;61.27;101447.34;5093844;28;20030;-70
2023/02/08 05:04:05;;;;;;;38.05;20.60;;;;;;;-3.60;60.59;101446.00;5092249;28;20058;-70
2023/02/08 05:06:30;;;;;;;40.92;19.25;;;;;;;-3.56;60.88;101455.53;5110884;28;20504;-70
2023/02/08 05:08:56;;;;;;;40.40;21.08;;;;;;;-3.61;60.69;101455.25;5112974;28;20023;-70
2023/02/08 05:11:23;;;;;;;48.28;20.90;;;;;;;-3.57;60.71;101447.50;5112686;28;20023;-70
2023/02/08 05:13:49;;;;;;;40.53;20.60;;;;;;;-3.69;60.94;101455.38;5112444;28;20107;-70
2023/02/08 05:16:15;;;;;;;44.50;22.38;;;;;;;-3.78;61.67;101453.78;5091588;28;20031;-70
2023/02/08 05:18:40;;;;;;;55.83;25.55;;;;;;;-3.77;61.33;101447.25;5092409;28;20039;-70
2023/02/08 05:21:06;;;;;;;48.42;24.55;;;;;;;-3.80;61.41;101462.19;5093540;28;20107;-70
2023/02/08 05:23:32;;;;;;;49.15;23.58;;;;;;;-3.84;61.26;101461.72;5092846;28;20020;-70
2023/02/08 05:25:58;;;;;;;46.35;22.02;;;;;;;-3.83;61.49;101463.41;5092210;28;20410;-70
2023/02/08 05:28:24;;;;;;;46.92;20.80;;;;;;;-3.78;61.43;101471.03;5093510;28;20034;-70
2023/02/08 05:30:50;;;;;;;45.78;22.50;;;;;;;-3.74;61.04;101476.94;5093378;28;20020;-70
2023/02/08 05:33:16;;;;;;;41.70;21.20;;;;;;;-3.70;61.07;101476.38;5093449;28;20413;-70
2023/02/08 05:35:43;;;;;;;40.70;21.83;;;;;;;-3.70;61.29;101479.13;5092056;28;20020;-70
2023/02/08 05:38:09;;;;;;;42.70;21.77;;;;;;;-3.67;61.21;101480.63;5092030;28;20044;-71
2023/02/08 05:40:34;;;;;;;43.65;19.13;;;;;;;-3.68;61.01;101471.59;5080515;28;20409;-70
2023/02/08 05:43:00;;;;;;;41.10;19.48;;;;;;;-3.68;61.09;101474.34;5071707;28;20371;-70
2023/02/08 05:45:25;;;;;;;42.92;20.15;;;;;;;-3.76;61.06;101468.09;5089216;28;20104;-70
2023/02/08 05:47:51;;;;;;;37.78;19.65;;;;;;;-3.83;61.38;101471.59;5090360;28;20024;-70
2023/02/08 05:50:16;;;;;;;39.58;20.33;;;;;;;-3.79;61.39;101479.44;5080599;28;20064;-70
2023/02/08 05:52:42;;;;;;;47.65;23.88;;;;;;;-3.58;62.00;101482.22;5090883;28;20032;-69
2023/02/08 05:55:08;;;;;;;54.00;24.88;;;;;;;-3.60;61.14;101483.47;5089977;28;20327;-72
2023/02/08 05:57:33;;;;;;;42.47;21.58;;;;;;;-3.46;60.89;101488.03;5096408;28;20089;-72
2023/02/08 05:59:59;;;;;;;49.47;22.17;;;;;;;-3.49;60.89;101496.66;5090047;28;20581;-75
2023/02/08 06:02:24;;;;;;;48.08;22.13;;;;;;;-3.41;60.28;101495.69;5089466;28;20126;-74
2023/02/08 06:04:50;;;;;;;49.17;22.02;;;;;;;-3.41;60.13;101490.22;5092374;28;20031;-72
2023/02/08 06:07:15;;;;;;;47.42;24.55;;;;;;;-3.50;60.51;101499.56;5082411;27;20028;-73
2023/02/08 06:09:41;;;;;;;51.78;23.48;;;;;;;-3.30;59.79;101499.81;5088565;28;20024;-73
2023/02/08 06:12:07;;;;;;;48.20;21.52;;;;;;;-3.27;59.48;101496.69;5090139;28;20552;-73
2023/02/08 06:14:32;;;;;;;47.35;22.52;;;;;;;-3.27;59.27;101500.25;5092888;28;20019;-72
2023/02/08 06:16:58;;;;;;;47.92;21.35;;;;;;;-3.31;59.56;101515.38;5085152;28;20092;-75
2023/02/08 06:19:23;;;;;;;43.80;21.83;;;;;;;-3.06;59.29;101511.47;5085466;28;20032;-75
2023/02/08 06:21:49;;;;;;;50.03;23.02;;;;;;;-3.23;58.71;101500.72;5077690;28;20092;-74
2023/02/08 06:24:15;;;;;;;44.58;20.75;;;;;;;-3.22;59.32;101515.28;5085773;28;20027;-73
2023/02/08 06:26:41;;;;;;;46.30;22.27;;;;;;;-3.18;59.69;101513.84;5088243;28;20151;-74
2023/02/08 06:29:07;;;;;;;47.72;22.33;;;;;;;-3.41;59.92;101518.44;5087375;28;20444;-72
2023/02/08 06:31:32;;;;;;;59.78;26.23;;;;;;;-3.39;60.17;101518.22;5084972;28;20028;-72
2023/02/08 06:33:58;;;;;;;59.63;28.35;;;;;;;-3.44;60.99;101521.56;5087888;28;20417;-73
2023/02/08 06:36:23;;;;;;;62.05;27.92;;;;;;;-3.50;61.11;101521.44;5086590;28;20165;-72
2023/02/08 06:38:49;;;;;;;63.33;30.40;;;;;;;-3.55;61.16;101517.41;5081439;28;21358;-73
2023/02/08 06:41:14;;;;;;;58.70;27.05;;;;;;;-3.44;61.50;101516.09;5087469;28;20073;-72
2023/02/08 06:43:40;;;;;;;55.88;25.27;;;;;;;-3.44;61.78;101526.19;5080501;28;20032;-74
2023/02/08 06:46:07;;;;;;;51.80;24.83;;;;;;;-3.45;61.97;101519.00;5083096;28;20043;-73
2023/02/08 06:48:36;;;;;;;55.72;25.30;;;;;;;-3.49;61.91;101514.97;5081349;28;20406;-74
2023/02/08 06:51:04;;;;;;;48.07;23.50;;;;;;;-3.36;61.66;101525.22;5085688;28;20081;-72
2023/02/08 06:53:30;;;;;;;46.03;21.85;;;;;;;-3.34;61.46;101526.72;5085811;28;20036;-72
2023/02/08 06:55:55;;;;;;;51.20;24.52;;;;;;;-3.42;61.42;101513.16;5086128;28;20028;-71
2023/02/08 06:58:21;;;;;;;47.72;23.08;;;;;;;-3.36;61.66;101512.41;5087549;28;20040;-71
2023/02/08 07:00:47;;;;;;;51.65;23.08;;;;;;;-3.33;62.28;101516.63;5087585;28;20028;-71
2023/02/08 07:03:16;;;;;;;48.85;21.23;;;;;;;-3.32;62.01;101530.13;5089071;28;20757;-71
2023/02/08 07:05:41;;;;;;;50.63;23.65;;;;;;;-3.28;61.01;101520.47;5097998;28;20119;-73
2023/02/08 07:08:07;;;;;;;45.55;21.70;;;;;;;-3.30;61.10;101522.56;5088271;28;20024;-70
2023/02/08 07:10:33;;;;;;;42.50;21.02;;;;;;;-3.18;61.04;101533.00;5087196;28;20028;-69
2023/02/08 07:13:00;;;;;;;43.17;20.85;;;;;;;-3.19;60.62;101523.09;5086720;28;20030;-72
2023/02/08 07:15:26;;;;;;;45.67;18.88;;;;;;;-3.15;60.61;101524.41;5088975;28;20036;-72
2023/02/08 07:17:51;;;;;;;37.60;19.70;;;;;;;-3.10;60.83;101527.44;5088967;28;20028;-68
2023/02/08 07:20:17;;;;;;;46.95;21.83;;;;;;;-3.05;60.15;101546.84;5087131;28;20032;-70
2023/02/08 07:22:42;;;;;;;45.38;21.20;;;;;;;-3.11;59.83;101528.47;5093373;28;20059;-71
2023/02/08 07:25:08;;;;;;;44.85;20.52;;;;;;;-3.13;60.09;101544.25;5087071;28;20032;-69
2023/02/08 07:27:34;;;;;;;44.42;20.45;;;;;;;-3.06;60.03;101549.81;5087898;28;20508;-72
2023/02/08 07:30:00;;;;;;;44.58;20.98;;;;;;;-3.00;60.37;101544.41;5088832;28;20035;-68
2023/02/08 07:32:26;;;;;;;41.97;20.27;;;;;;;-2.96;59.58;101550.31;5088433;28;20102;-70
2023/02/08 07:34:52;;;;;;;44.78;21.38;;;;;;;-2.92;59.63;101553.50;5090406;28;20464;-68
2023/02/08 07:37:18;;;;;;;45.78;20.55;;;;;;;-2.94;59.41;101541.91;5088877;28;20028;-70
2023/02/08 07:39:44;;;;;;;38.95;19.77;;;;;;;-2.87;59.56;101546.41;5093070;28;20028;-68
2023/02/08 07:42:09;;;;;;;42.15;19.60;;;;;;;-2.84;59.29;101550.66;5094995;28;20104;-70
2023/02/08 07:44:38;;;;;;;47.42;22.80;;;;;;;-2.76;58.74;101553.28;5099066;28;20093;-69
2023/02/08 07:47:05;;;;;;;42.95;19.95;;;;;;;-2.82;58.46;101556.78;5089195;28;20047;-70
2023/02/08 07:49:31;;;;;;;40.67;21.15;;;;;;;-2.80;58.99;101562.91;5090126;28;20059;-70
2023/02/08 07:51:58;;;;;;;52.50;21.40;;;;;;;-2.75;58.60;101552.25;5097205;28;20490;-68
2023/02/08 07:54:23;;;;;;;48.40;21.50;;;;;;;-2.69;58.59;101548.72;5097344;28;20035;-68
2023/02/08 07:56:49;;;;;;;42.65;20.80;;;;;;;-2.62;58.32;101556.16;5109932;28;20036;-68
2023/02/08 07:59:15;;;;;;;46.30;20.75;;;;;;;-2.34;58.03;101558.09;5093092;28;20032;-68
2023/02/08 08:01:40;;;;;;;69.40;30.73;;;;;;;-2.38;57.83;101552.16;5092712;28;20055;-69
2023/02/08 08:04:06;;;;;;;50.85;23.52;;;;;;;-2.39;57.66;101564.16;5095711;28;20034;-70
2023/02/08 08:06:31;;;;;;;76.35;32.13;;;;;;;-2.28;57.76;101563.63;5101596;28;20032;-70
2023/02/08 08:08:57;;;;;;;62.63;29.60;;;;;;;-2.24;57.69;101565.97;5091941;28;20035;-70
2023/02/08 08:11:23;;;;;;;62.08;30.13;;;;;;;-2.07;57.73;101570.13;5097003;28;20035;-70
2023/02/08 08:13:49;;;;;;;91.57;32.15;;;;;;;-2.03;57.82;101562.38;5091008;28;20043;-70
2023/02/08 08:16:15;;;;;;;49.63;24.98;;;;;;;-1.95;57.07;101562.19;5092722;28;20031;-71
2023/02/08 08:18:41;;;;;;;62.72;26.63;;;;;;;-1.89;57.38;101553.16;5103199;28;20039;-73
2023/02/08 08:21:07;;;;;;;40.75;22.02;;;;;;;-1.92;56.11;101564.56;5101346;28;20090;-71
2023/02/08 08:23:34;;;;;;;42.83;21.63;;;;;;;-1.97;55.64;101561.53;5096382;28;20023;-71
2023/02/08 08:26:06;;;;;;;50.45;24.75;;;;;;;-1.91;56.11;101563.50;5088339;28;20106;-71
2023/02/08 08:28:31;;;;;;;46.00;20.52;;;;;;;-1.64;55.45;101565.56;5084859;28;20032;-69
2023/02/08 08:30:57;;;;;;;48.47;19.70;;;;;;;-1.72;54.36;101569.31;5085224;28;20024;-73
2023/02/08 08:33:22;;;;;;;49.33;22.55;;;;;;;-1.66;54.56;101567.66;5089332;28;20036;-71
2023/02/08 08:35:48;;;;;;;48.75;21.95;;;;;;;-1.64;54.04;101576.53;5081843;28;20058;-71
2023/02/08 08:38:13;;;;;;;44.70;23.00;;;;;;;-1.65;53.41;101578.44;5089248;28;20028;-71
2023/02/08 08:40:39;;;;;;;40.38;20.08;;;;;;;-1.53;53.46;101577.88;5087849;28;21123;-72
2023/02/08 08:43:04;;;;;;;41.38;19.33;;;;;;;-1.39;53.80;101581.53;5090308;28;20035;-71
2023/02/08 08:45:30;;;;;;;40.25;19.98;;;;;;;-1.45;52.69;101575.81;5080671;28;20782;-71
2023/02/08 08:47:55;;;;;;;40.80;19.52;;;;;;;-1.49;52.50;101571.78;5086932;28;20039;-71
2023/02/08 08:50:21;;;;;;;52.50;23.95;;;;;;;-1.39;53.23;101574.16;5079908;28;20053;-69
2023/02/08 08:52:47;;;;;;;62.35;26.83;;;;;;;-1.25;52.23;101571.47;5088205;28;20024;-69
2023/02/08 08:55:13;;;;;;;47.33;21.92;;;;;;;-1.18;51.69;101586.09;5088445;28;20028;-71
2023/02/08 08:57:38;;;;;;;41.92;23.50;;;;;;;-1.23;51.92;101585.81;5087627;28;20023;-71
2023/02/08 09:00:04;;;;;;;39.08;17.70;;;;;;;-1.02;51.00;101596.69;5086826;28;20031;-72
2023/02/08 09:02:29;;;;;;;37.33;18.60;;;;;;;-0.96;51.32;101596.94;5086525;28;20028;-72
2023/02/08 09:04:58;;;;;;;54.95;20.42;;;;;;;-0.96;50.28;101594.22;5095455;28;20031;-72
2023/02/08 09:07:24;;;;;;;43.00;18.08;;;;;;;-0.77;48.66;101601.66;5089070;28;20040;-74
2023/02/08 09:09:49;;;;;;;36.67;18.55;;;;;;;-0.57;48.11;101600.88;5083304;28;20394;-71
2023/02/08 09:12:15;;;;;;;44.10;19.30;;;;;;;-0.36;49.22;101604.47;5085877;28;20020;-71
2023/02/08 09:14:43;;;;;;;50.03;20.27;;;;;;;-0.12;47.42;101593.91;5095698;28;20028;-72
2023/02/08 09:17:09;;;;;;;34.00;17.38;;;;;;;-0.09;48.22;101596.25;5102789;28;20028;-72
2023/02/08 09:19:34;;;;;;;34.58;16.75;;;;;;;0.37;46.34;101602.78;5099234;28;20024;-72
2023/02/08 09:22:00;;;;;;;30.45;16.80;;;;;;;0.68;45.62;101592.97;5092577;28;20082;-70
2023/02/08 09:24:25;;;;;;;30.38;15.45;;;;;;;0.57;44.27;101599.97;5090928;28;20082;-72
2023/02/08 09:26:51;;;;;;;29.23;15.65;;;;;;;0.39;44.86;101596.00;5087654;28;20023;-72
2023/02/08 09:29:16;;;;;;;31.20;16.65;;;;;;;0.74;45.14;101589.34;5082947;28;20036;-72
2023/02/08 09:31:42;;;;;;;26.70;14.48;;;;;;;0.73;44.78;101589.56;5081537;28;20023;-72
2023/02/08 09:34:07;;;;;;;22.67;13.18;;;;;;;0.66;43.60;101595.94;5086400;28;20023;-72
2023/02/08 09:36:36;;;;;;;29.98;14.73;;;;;;;0.87;44.07;101593.97;5089192;28;20028;-72
2023/02/08 09:39:09;;;;;;;26.85;12.82;;;;;;;1.21;42.12;101589.16;5087245;28;20090;-71
2023/02/08 09:42:02;;;;;;;24.45;12.73;;;;;;;1.47;41.69;101592.81;5090633;28;20024;-71
2023/02/08 09:44:49;;;;;;;24.55;11.93;;;;;;;1.87;39.99;101590.84;5088167;28;20082;-71
2023/02/08 09:47:23;;;;;;;25.48;13.30;;;;;;;2.38;39.90;101589.72;5084716;28;20042;-71
2023/02/08 09:50:01;;;;;;;26.92;12.90;;;;;;;2.18;39.82;101592.69;5073822;28;20526;-71
2023/02/08 09:52:35;;;;;;;25.20;11.93;;;;;;;2.34;39.08;101585.75;5089763;28;20028;-71
2023/02/08 09:55:18;;;;;;;43.08;18.42;;;;;;;1.71;40.06;101576.53;5107083;28;20047;-70
2023/02/08 09:57:45;;;;;;;28.00;13.05;;;;;;;1.63;40.47;101574.91;5089856;28;20548;-71
2023/02/08 10:00:24;;;;;;;23.05;11.82;;;;;;;1.37;40.37;101575.91;5087934;28;20035;-71
2023/02/08 10:02:52;;;;;;;23.95;13.15;;;;;;;1.15;40.98;101573.47;5099319;28;20089;-70
2023/02/08 10:05:25;;;;;;;24.95;13.02;;;;;;;1.11;41.17;101566.72;5121742;27;20016;-71
2023/02/08 10:07:51;;;;;;;27.23;12.88;;;;;;;1.20;41.76;101562.63;5094172;28;20052;-71
2023/02/08 10:10:31;;;;;;;36.22;14.45;;;;;;;1.54;41.20;101559.66;5092399;28;20445;-71
2023/02/08 10:13:48;;;;;;;26.80;14.63;;;;;;;1.71;41.33;101562.72;5092290;28;20035;-72
2023/02/08 10:16:16;;;;;;;23.00;11.77;;;;;;;1.36;40.26;101566.78;5057886;28;20039;-71
2023/02/08 10:18:58;;;;;;;48.55;14.13;;;;;;;1.68;40.50;101561.25;5092992;28;20028;-71
2023/02/08 10:22:18;;;;;;;25.08;14.30;;;;;;;2.18;38.26;101558.72;5087119;28;20374;-73
2023/02/08 10:24:59;;;;;;;21.52;12.98;;;;;;;2.45;37.31;101553.75;5009298;28;20042;-72
2023/02/08 10:27:49;;;;;;;24.17;9.82;;;;;;;2.84;36.92;101544.41;5094678;28;20478;-69
2023/02/08 10:30:27;;;;;;;18.67;10.35;;;;;;;2.80;35.96;101542.06;5094205;28;20161;-71
2023/02/08 10:33:16;;;;;;;19.10;10.05;;;;;;;3.23;36.65;101542.97;5090869;28;20016;-72
2023/02/08 10:35:47;;;;;;;20.73;11.20;;;;;;;3.42;36.22;101531.88;5095979;28;20050;-73
2023/02/08 10:38:18;;;;;;;18.90;10.77;;;;;;;2.72;37.04;101541.53;5097581;28;20054;-71
2023/02/08 10:40:46;;;;;;;19.42;10.90;;;;;;;2.74;37.70;101534.72;5092403;28;20023;-72
2023/02/08 10:43:36;;;;;;;19.25;11.35;;;;;;;3.32;37.85;101540.75;5101337;28;20051;-73
2023/02/08 10:46:20;;;;;;;;;;;;;;;2.60;36.22;101544.25;5083695;28;20371;-73
2023/02/08 10:49:00;;;;;;;16.63;9.20;;;;;;;2.71;36.94;101534.34;5088526;28;19920;-73
2023/02/08 10:51:26;;;;;;;17.75;10.60;;;;;;;1.78;37.05;101538.66;5090169;28;20025;-73
2023/02/08 10:53:52;;;;;;;17.60;9.48;;;;;;;1.63;38.29;101550.06;5087573;28;20115;-73
2023/02/08 10:56:39;;;;;;;15.48;9.25;;;;;;;1.96;36.98;101553.59;5079257;28;20196;-73
2023/02/08 10:59:22;;;;;;;15.68;9.15;;;;;;;1.72;37.39;101555.28;5086695;28;20379;-73
2023/02/08 11:01:49;;;;;;;17.05;9.45;;;;;;;1.58;37.89;101554.56;5091113;28;20115;-72
2023/02/08 11:04:15;;;;;;;15.25;8.93;;;;;;;1.88;38.32;101562.16;5103259;28;20036;-73
2023/02/08 11:06:43;;;;;;;16.02;9.85;;;;;;;2.14;37.69;101557.47;5095542;28;20024;-73
2023/02/08 11:09:29;;;;;;;18.55;9.48;;;;;;;2.08;36.97;101553.69;5091132;28;20115;-73
2023/02/08 11:11:58;;;;;;;27.85;15.25;;;;;;;2.30;36.94;101551.38;5079080;28;20413;-72
2023/02/08 11:14:34;;;;;;;21.73;11.57;;;;;;;2.51;37.01;101539.03;5091381;28;20077;-72
2023/02/08 11:17:00;;;;;;;17.65;10.35;;;;;;;2.93;36.25;101538.31;5082861;28;20350;-74
2023/02/08 11:19:34;;;;;;;17.83;9.60;;;;;;;2.77;35.97;101539.78;5092345;28;20054;-73
2023/02/08 11:22:01;;;;;;;14.43;8.63;;;;;;;2.71;37.14;101528.81;5109764;28;20059;-73
2023/02/08 11:24:34;;;;;;;15.65;9.65;;;;;;;3.03;36.78;101537.75;5101799;28;20093;-73